sensor_id;sensor_type;location;lat;lon;timestamp;noise_LAeq;noise_LA_min;noise_LA_max;noise_LA01;noise_LA95
58303;Laerm;44109;52.398;7.024;2024-02-16T00:00:27;46.36;32.32;58.87;;
58303;Laerm;44109;52.398;7.024;2024-02-16T00:02:54;46.35;32.27;56.79;;
58303;Laerm;44109;52.398;7.024;2024-02-16T00:05:22;46.07;31.96;57.03;;
58303;Laerm;44109;52.398;7.024;2024-02-16T00:07:50;45.95;31.69;56.92;;
58303;Laerm;44109;52.398;7.024;2024-02-16T00:10:20;45.87;31.90;57.21;;
58303;Laerm;44109;52.398;7.024;2024-02-16T00:12:48;46.17;32.00;56.82;;
58303;Laerm;44109;52.398;7.024;2024-02-16T00:15:15;45.99;32.14;57.23;;
58303;Laerm;44109;52.398;7.024;2024-02-16T00:17:46;46.89;32.93;57.34;;
58303;Laerm;44109;52.398;7.024;2024-02-16T00:20:14;45.94;32.48;57.33;;
58303;Laerm;44109;52.398;7.024;2024-02-16T00:22:42;46.07;32.53;57.34;;
58303;Laerm;44109;52.398;7.024;2024-02-16T00:25:11;46.02;32.50;56.83;;
58303;Laerm;44109;52.398;7.024;2024-02-16T00:27:40;46.45;32.72;57.17;;
58303;Laerm;44109;52.398;7.024;2024-02-16T00:30:09;46.57;32.51;61.47;;
58303;Laerm;44109;52.398;7.024;2024-02-16T00:32:37;46.48;32.21;57.01;;
58303;Laerm;44109;52.398;7.024;2024-02-16T00:35:06;46.00;32.09;57.08;;
58303;Laerm;44109;52.398;7.024;2024-02-16T00:37:33;46.20;32.39;57.11;;
58303;Laerm;44109;52.398;7.024;2024-02-16T00:40:01;46.43;32.19;64.73;;
58303;Laerm;44109;52.398;7.024;2024-02-16T00:42:28;46.29;32.25;60.77;;
58303;Laerm;44109;52.398;7.024;2024-02-16T00:44:58;46.06;32.55;57.82;;
58303;Laerm;44109;52.398;7.024;2024-02-16T00:47:27;46.16;32.39;62.08;;
58303;Laerm;44109;52.398;7.024;2024-02-16T00:49:54;46.08;32.09;63.52;;
58303;Laerm;44109;52.398;7.024;2024-02-16T00:52:23;46.20;31.95;66.92;;
58303;Laerm;44109;52.398;7.024;2024-02-16T00:54:53;45.98;32.23;56.98;;
58303;Laerm;44109;52.398;7.024;2024-02-16T00:57:20;45.82;32.08;57.14;;
58303;Laerm;44109;52.398;7.024;2024-02-16T00:59:49;45.83;32.08;57.09;;
58303;Laerm;44109;52.398;7.024;2024-02-16T01:02:18;46.72;32.71;62.53;;
58303;Laerm;44109;52.398;7.024;2024-02-16T01:04:46;46.16;31.93;57.10;;
58303;Laerm;44109;52.398;7.024;2024-02-16T01:07:15;46.95;32.60;56.95;;
58303;Laerm;44109;52.398;7.024;2024-02-16T01:09:49;45.74;31.59;56.99;;
58303;Laerm;44109;52.398;7.024;2024-02-16T01:12:19;45.80;32.17;56.98;;
58303;Laerm;44109;52.398;7.024;2024-02-16T01:14:48;45.78;31.91;57.01;;
58303;Laerm;44109;52.398;7.024;2024-02-16T01:17:17;45.71;31.58;57.10;;
58303;Laerm;44109;52.398;7.024;2024-02-16T01:19:45;45.80;31.66;56.80;;
58303;Laerm;44109;52.398;7.024;2024-02-16T01:22:13;46.04;32.00;57.33;;
58303;Laerm;44109;52.398;7.024;2024-02-16T01:24:41;45.98;31.81;57.13;;
58303;Laerm;44109;52.398;7.024;2024-02-16T01:27:08;45.73;31.79;56.93;;
58303;Laerm;44109;52.398;7.024;2024-02-16T01:29:37;45.75;31.52;57.04;;
58303;Laerm;44109;52.398;7.024;2024-02-16T01:32:05;46.18;31.92;63.04;;
58303;Laerm;44109;52.398;7.024;2024-02-16T01:34:34;45.89;31.89;56.83;;
58303;Laerm;44109;52.398;7.024;2024-02-16T01:37:02;45.74;31.52;57.20;;
58303;Laerm;44109;52.398;7.024;2024-02-16T01:39:30;45.76;31.63;57.02;;
58303;Laerm;44109;52.398;7.024;2024-02-16T01:41:58;46.41;31.74;63.82;;
58303;Laerm;44109;52.398;7.024;2024-02-16T01:44:27;46.06;32.58;57.12;;
58303;Laerm;44109;52.398;7.024;2024-02-16T01:46:55;45.85;31.68;57.12;;
58303;Laerm;44109;52.398;7.024;2024-02-16T01:49:23;46.14;31.64;57.07;;
58303;Laerm;44109;52.398;7.024;2024-02-16T01:51:52;45.93;31.66;56.71;;
58303;Laerm;44109;52.398;7.024;2024-02-16T01:54:19;46.01;31.68;57.04;;
58303;Laerm;44109;52.398;7.024;2024-02-16T01:56:47;45.90;31.87;57.05;;
58303;Laerm;44109;52.398;7.024;2024-02-16T01:59:17;45.91;32.24;57.24;;
58303;Laerm;44109;52.398;7.024;2024-02-16T02:01:45;45.90;31.64;57.22;;
58303;Laerm;44109;52.398;7.024;2024-02-16T02:04:12;46.09;32.07;57.36;;
58303;Laerm;44109;52.398;7.024;2024-02-16T02:06:40;45.88;31.28;57.18;;
58303;Laerm;44109;52.398;7.024;2024-02-16T02:09:09;46.86;31.77;65.11;;
58303;Laerm;44109;52.398;7.024;2024-02-16T02:11:37;46.58;31.86;57.25;;
58303;Laerm;44109;52.398;7.024;2024-02-16T02:14:05;46.07;32.06;57.20;;
58303;Laerm;44109;52.398;7.024;2024-02-16T02:16:32;46.92;31.90;57.14;;
58303;Laerm;44109;52.398;7.024;2024-02-16T02:19:00;45.96;31.96;57.05;;
58303;Laerm;44109;52.398;7.024;2024-02-16T02:21:28;45.96;31.63;57.13;;
58303;Laerm;44109;52.398;7.024;2024-02-16T02:23:57;45.85;31.94;56.97;;
58303;Laerm;44109;52.398;7.024;2024-02-16T02:26:25;46.21;32.04;57.11;;
58303;Laerm;44109;52.398;7.024;2024-02-16T02:28:52;45.95;31.84;57.20;;
58303;Laerm;44109;52.398;7.024;2024-02-16T02:31:21;46.04;31.54;60.69;;
58303;Laerm;44109;52.398;7.024;2024-02-16T02:33:51;46.67;32.66;56.82;;
58303;Laerm;44109;52.398;7.024;2024-02-16T02:36:25;46.12;32.24;57.11;;
58303;Laerm;44109;52.398;7.024;2024-02-16T02:38:52;46.29;32.98;57.03;;
58303;Laerm;44109;52.398;7.024;2024-02-16T02:41:23;45.89;31.93;56.70;;
58303;Laerm;44109;52.398;7.024;2024-02-16T02:43:53;45.83;31.70;56.73;;
58303;Laerm;44109;52.398;7.024;2024-02-16T02:46:23;45.88;31.80;57.15;;
58303;Laerm;44109;52.398;7.024;2024-02-16T02:48:54;46.58;32.52;56.78;;
58303;Laerm;44109;52.398;7.024;2024-02-16T02:51:24;45.80;31.65;56.97;;
58303;Laerm;44109;52.398;7.024;2024-02-16T02:53:54;45.85;31.91;57.13;;
58303;Laerm;44109;52.398;7.024;2024-02-16T02:56:25;46.49;31.88;57.01;;
58303;Laerm;44109;52.398;7.024;2024-02-16T02:58:56;46.07;32.23;57.11;;
58303;Laerm;44109;52.398;7.024;2024-02-16T03:01:29;47.00;33.08;57.35;;
58303;Laerm;44109;52.398;7.024;2024-02-16T03:04:00;45.81;32.26;57.12;;
58303;Laerm;44109;52.398;7.024;2024-02-16T03:06:30;45.78;31.93;56.90;;
58303;Laerm;44109;52.398;7.024;2024-02-16T03:08:59;45.81;32.01;56.99;;
58303;Laerm;44109;52.398;7.024;2024-02-16T03:11:29;45.94;32.24;57.03;;
58303;Laerm;44109;52.398;7.024;2024-02-16T03:13:58;45.81;31.85;57.09;;
58303;Laerm;44109;52.398;7.024;2024-02-16T03:16:30;45.75;31.56;56.80;;
58303;Laerm;44109;52.398;7.024;2024-02-16T03:18:59;45.70;31.74;56.81;;
58303;Laerm;44109;52.398;7.024;2024-02-16T03:21:28;45.75;31.77;57.02;;
58303;Laerm;44109;52.398;7.024;2024-02-16T03:23:57;45.65;31.84;57.04;;
58303;Laerm;44109;52.398;7.024;2024-02-16T03:26:25;45.66;31.76;57.00;;
58303;Laerm;44109;52.398;7.024;2024-02-16T03:28:54;45.60;31.63;56.87;;
58303;Laerm;44109;52.398;7.024;2024-02-16T03:31:23;45.61;31.78;58.16;;
58303;Laerm;44109;52.398;7.024;2024-02-16T03:33:52;45.54;31.93;57.07;;
58303;Laerm;44109;52.398;7.024;2024-02-16T03:36:20;45.60;32.18;56.71;;
58303;Laerm;44109;52.398;7.024;2024-02-16T03:38:49;45.60;32.00;57.09;;
58303;Laerm;44109;52.398;7.024;2024-02-16T03:41:19;45.79;32.28;57.15;;
58303;Laerm;44109;52.398;7.024;2024-02-16T03:43:47;45.49;31.97;57.26;;
58303;Laerm;44109;52.398;7.024;2024-02-16T03:46:17;45.81;31.99;57.14;;
58303;Laerm;44109;52.398;7.024;2024-02-16T03:48:44;45.54;31.89;57.19;;
58303;Laerm;44109;52.398;7.024;2024-02-16T03:51:12;45.60;31.83;57.13;;
58303;Laerm;44109;52.398;7.024;2024-02-16T03:53:40;45.80;32.21;57.11;;
58303;Laerm;44109;52.398;7.024;2024-02-16T03:56:07;46.79;32.23;57.21;;
58303;Laerm;44109;52.398;7.024;2024-02-16T03:58:36;45.97;32.37;57.27;;
58303;Laerm;44109;52.398;7.024;2024-02-16T04:01:04;46.65;33.83;63.63;;
58303;Laerm;44109;52.398;7.024;2024-02-16T04:03:34;46.54;32.30;57.48;;
58303;Laerm;44109;52.398;7.024;2024-02-16T04:06:02;46.32;32.61;57.53;;
58303;Laerm;44109;52.398;7.024;2024-02-16T04:08:30;47.33;33.63;58.07;;
58303;Laerm;44109;52.398;7.024;2024-02-16T04:10:58;46.09;32.69;57.01;;
58303;Laerm;44109;52.398;7.024;2024-02-16T04:13:26;45.95;33.09;57.07;;
58303;Laerm;44109;52.398;7.024;2024-02-16T04:15:53;47.00;34.74;57.24;;
58303;Laerm;44109;52.398;7.024;2024-02-16T04:18:21;46.73;33.45;57.53;;
58303;Laerm;44109;52.398;7.024;2024-02-16T04:20:50;46.40;32.78;56.80;;
58303;Laerm;44109;52.398;7.024;2024-02-16T04:23:17;46.12;33.25;57.29;;
58303;Laerm;44109;52.398;7.024;2024-02-16T04:25:46;46.20;33.42;57.29;;
58303;Laerm;44109;52.398;7.024;2024-02-16T04:28:15;46.40;32.63;57.30;;
58303;Laerm;44109;52.398;7.024;2024-02-16T04:30:46;47.45;34.05;69.87;;
58303;Laerm;44109;52.398;7.024;2024-02-16T04:33:14;59.56;36.38;82.19;;
58303;Laerm;44109;52.398;7.024;2024-02-16T04:35:47;47.47;35.57;57.88;;
58303;Laerm;44109;52.398;7.024;2024-02-16T04:38:19;49.60;34.89;73.22;;
58303;Laerm;44109;52.398;7.024;2024-02-16T04:40:48;53.32;36.32;78.53;;
58303;Laerm;44109;52.398;7.024;2024-02-16T04:43:17;49.51;36.22;71.44;;
58303;Laerm;44109;52.398;7.024;2024-02-16T04:45:47;48.06;33.79;56.98;;
58303;Laerm;44109;52.398;7.024;2024-02-16T04:48:17;46.24;33.24;57.18;;
58303;Laerm;44109;52.398;7.024;2024-02-16T04:50:45;48.71;34.56;58.35;;
58303;Laerm;44109;52.398;7.024;2024-02-16T04:53:13;47.44;36.00;57.18;;
58303;Laerm;44109;52.398;7.024;2024-02-16T04:55:42;49.18;36.57;58.35;;
58303;Laerm;44109;52.398;7.024;2024-02-16T04:58:09;47.71;34.12;56.74;;
58303;Laerm;44109;52.398;7.024;2024-02-16T05:00:37;46.98;34.07;60.98;;
58303;Laerm;44109;52.398;7.024;2024-02-16T05:03:06;46.08;32.79;57.45;;
58303;Laerm;44109;52.398;7.024;2024-02-16T05:05:33;48.02;37.87;56.95;;
58303;Laerm;44109;52.398;7.024;2024-02-16T05:08:01;47.33;37.35;57.40;;
58303;Laerm;44109;52.398;7.024;2024-02-16T05:10:29;48.23;34.06;56.99;;
58303;Laerm;44109;52.398;7.024;2024-02-16T05:12:58;47.33;37.65;57.10;;
58303;Laerm;44109;52.398;7.024;2024-02-16T05:15:25;46.24;33.52;57.08;;
58303;Laerm;44109;52.398;7.024;2024-02-16T05:17:54;48.05;34.08;57.10;;
58303;Laerm;44109;52.398;7.024;2024-02-16T05:20:21;48.92;38.81;56.98;;
58303;Laerm;44109;52.398;7.024;2024-02-16T05:22:49;48.11;36.17;57.44;;
58303;Laerm;44109;52.398;7.024;2024-02-16T05:25:18;47.53;35.97;57.15;;
58303;Laerm;44109;52.398;7.024;2024-02-16T05:27:46;50.41;40.95;58.84;;
58303;Laerm;44109;52.398;7.024;2024-02-16T05:30:16;47.62;35.55;58.83;;
58303;Laerm;44109;52.398;7.024;2024-02-16T05:32:46;47.77;35.79;56.57;;
58303;Laerm;44109;52.398;7.024;2024-02-16T05:35:15;47.18;33.95;70.86;;
58303;Laerm;44109;52.398;7.024;2024-02-16T05:37:44;48.36;35.95;60.00;;
58303;Laerm;44109;52.398;7.024;2024-02-16T05:40:14;48.38;35.95;57.43;;
58303;Laerm;44109;52.398;7.024;2024-02-16T05:42:52;48.50;36.88;58.00;;
58303;Laerm;44109;52.398;7.024;2024-02-16T05:45:21;48.36;37.88;58.88;;
58303;Laerm;44109;52.398;7.024;2024-02-16T05:47:49;48.91;39.97;57.59;;
58303;Laerm;44109;52.398;7.024;2024-02-16T05:50:20;48.88;39.34;58.31;;
58303;Laerm;44109;52.398;7.024;2024-02-16T05:53:01;48.70;36.32;61.04;;
58303;Laerm;44109;52.398;7.024;2024-02-16T05:55:29;48.99;40.09;61.34;;
58303;Laerm;44109;52.398;7.024;2024-02-16T05:57:56;49.82;42.02;61.62;;
58303;Laerm;44109;52.398;7.024;2024-02-16T06:00:25;48.74;38.94;64.29;;
58303;Laerm;44109;52.398;7.024;2024-02-16T06:02:53;50.08;39.97;61.22;;
58303;Laerm;44109;52.398;7.024;2024-02-16T06:05:21;50.63;38.47;73.50;;
58303;Laerm;44109;52.398;7.024;2024-02-16T06:07:49;54.88;39.62;71.29;;
58303;Laerm;44109;52.398;7.024;2024-02-16T06:10:16;53.87;40.89;71.38;;
58303;Laerm;44109;52.398;7.024;2024-02-16T06:12:44;52.68;40.82;69.05;;
58303;Laerm;44109;52.398;7.024;2024-02-16T06:15:12;50.17;39.28;64.67;;
58303;Laerm;44109;52.398;7.024;2024-02-16T06:17:42;51.45;41.98;60.88;;
58303;Laerm;44109;52.398;7.024;2024-02-16T06:20:10;50.33;39.82;65.77;;
58303;Laerm;44109;52.398;7.024;2024-02-16T06:22:38;51.61;39.90;67.78;;
58303;Laerm;44109;52.398;7.024;2024-02-16T06:25:06;51.66;43.14;66.57;;
58303;Laerm;44109;52.398;7.024;2024-02-16T06:27:34;51.15;37.35;66.57;;
58303;Laerm;44109;52.398;7.024;2024-02-16T06:30:02;51.43;42.87;71.82;;
58303;Laerm;44109;52.398;7.024;2024-02-16T06:32:31;51.94;42.33;62.59;;
58303;Laerm;44109;52.398;7.024;2024-02-16T06:35:00;52.68;41.79;68.72;;
58303;Laerm;44109;52.398;7.024;2024-02-16T06:37:27;52.56;40.67;67.60;;
58303;Laerm;44109;52.398;7.024;2024-02-16T06:39:55;52.81;40.69;66.31;;
58303;Laerm;44109;52.398;7.024;2024-02-16T06:42:22;53.69;45.01;68.58;;
58303;Laerm;44109;52.398;7.024;2024-02-16T06:44:50;52.82;41.88;65.22;;
58303;Laerm;44109;52.398;7.024;2024-02-16T06:47:18;52.77;41.96;65.99;;
58303;Laerm;44109;52.398;7.024;2024-02-16T06:49:46;51.79;41.62;65.88;;
58303;Laerm;44109;52.398;7.024;2024-02-16T06:52:15;51.20;39.84;64.37;;
58303;Laerm;44109;52.398;7.024;2024-02-16T06:54:43;52.53;41.57;64.36;;
58303;Laerm;44109;52.398;7.024;2024-02-16T06:57:12;55.34;42.84;73.07;;
58303;Laerm;44109;52.398;7.024;2024-02-16T06:59:43;52.87;41.53;66.46;;
58303;Laerm;44109;52.398;7.024;2024-02-16T07:02:10;50.95;42.67;66.44;;
58303;Laerm;44109;52.398;7.024;2024-02-16T07:04:40;52.84;42.31;66.51;;
58303;Laerm;44109;52.398;7.024;2024-02-16T07:07:07;51.30;40.74;69.30;;
58303;Laerm;44109;52.398;7.024;2024-02-16T07:09:36;52.00;42.59;64.14;;
58303;Laerm;44109;52.398;7.024;2024-02-16T07:12:07;52.11;39.85;65.89;;
58303;Laerm;44109;52.398;7.024;2024-02-16T07:14:34;53.94;42.36;67.86;;
58303;Laerm;44109;52.398;7.024;2024-02-16T07:17:03;54.26;43.28;73.53;;
58303;Laerm;44109;52.398;7.024;2024-02-16T07:19:35;53.86;42.45;68.09;;
58303;Laerm;44109;52.398;7.024;2024-02-16T07:22:04;52.97;42.81;68.34;;
58303;Laerm;44109;52.398;7.024;2024-02-16T07:24:37;50.02;42.96;61.49;;
58303;Laerm;44109;52.398;7.024;2024-02-16T07:27:06;51.41;43.74;62.40;;
58303;Laerm;44109;52.398;7.024;2024-02-16T07:29:36;55.14;42.79;73.60;;
58303;Laerm;44109;52.398;7.024;2024-02-16T07:32:07;53.57;43.93;69.87;;
58303;Laerm;44109;52.398;7.024;2024-02-16T07:34:37;53.38;42.78;74.51;;
58303;Laerm;44109;52.398;7.024;2024-02-16T07:37:10;52.26;44.14;66.77;;
58303;Laerm;44109;52.398;7.024;2024-02-16T07:39:41;53.29;42.55;67.94;;
58303;Laerm;44109;52.398;7.024;2024-02-16T07:42:10;50.77;40.96;65.48;;
58303;Laerm;44109;52.398;7.024;2024-02-16T07:44:43;49.60;41.54;63.66;;
58303;Laerm;44109;52.398;7.024;2024-02-16T07:47:12;52.87;39.98;76.41;;
58303;Laerm;44109;52.398;7.024;2024-02-16T07:49:42;50.64;41.59;67.78;;
58303;Laerm;44109;52.398;7.024;2024-02-16T07:52:11;53.07;40.48;73.00;;
58303;Laerm;44109;52.398;7.024;2024-02-16T07:54:41;54.34;38.56;74.13;;
58303;Laerm;44109;52.398;7.024;2024-02-16T07:57:12;51.90;38.15;71.17;;
58303;Laerm;44109;52.398;7.024;2024-02-16T07:59:41;49.79;40.29;64.63;;
58303;Laerm;44109;52.398;7.024;2024-02-16T08:02:09;51.56;40.28;63.84;;
58303;Laerm;44109;52.398;7.024;2024-02-16T08:04:41;51.97;39.03;68.66;;
58303;Laerm;44109;52.398;7.024;2024-02-16T08:07:09;53.20;41.46;67.71;;
58303;Laerm;44109;52.398;7.024;2024-02-16T08:09:36;53.05;38.31;69.10;;
58303;Laerm;44109;52.398;7.024;2024-02-16T08:12:06;53.70;41.70;70.34;;
58303;Laerm;44109;52.398;7.024;2024-02-16T08:14:33;52.70;41.57;71.73;;
58303;Laerm;44109;52.398;7.024;2024-02-16T08:17:01;53.56;41.42;71.45;;
58303;Laerm;44109;52.398;7.024;2024-02-16T08:19:33;52.77;43.16;70.86;;
58303;Laerm;44109;52.398;7.024;2024-02-16T08:22:01;51.64;40.89;68.71;;
58303;Laerm;44109;52.398;7.024;2024-02-16T08:24:29;54.00;40.54;74.16;;
58303;Laerm;44109;52.398;7.024;2024-02-16T08:26:59;52.48;42.82;73.55;;
58303;Laerm;44109;52.398;7.024;2024-02-16T08:29:28;53.47;39.63;69.60;;
58303;Laerm;44109;52.398;7.024;2024-02-16T08:31:56;54.94;39.53;75.77;;
58303;Laerm;44109;52.398;7.024;2024-02-16T08:34:23;53.09;42.20;67.91;;
58303;Laerm;44109;52.398;7.024;2024-02-16T08:36:52;54.24;40.58;70.22;;
58303;Laerm;44109;52.398;7.024;2024-02-16T08:39:19;53.28;40.49;69.73;;
58303;Laerm;44109;52.398;7.024;2024-02-16T08:41:51;52.96;41.41;68.14;;
58303;Laerm;44109;52.398;7.024;2024-02-16T08:44:18;52.48;41.79;62.05;;
58303;Laerm;44109;52.398;7.024;2024-02-16T08:46:47;52.79;44.06;67.30;;
58303;Laerm;44109;52.398;7.024;2024-02-16T08:49:16;52.49;42.48;68.25;;
58303;Laerm;44109;52.398;7.024;2024-02-16T08:51:44;51.83;41.03;62.72;;
58303;Laerm;44109;52.398;7.024;2024-02-16T08:54:12;51.28;42.01;60.31;;
58303;Laerm;44109;52.398;7.024;2024-02-16T08:56:39;53.63;40.67;73.07;;
58303;Laerm;44109;52.398;7.024;2024-02-16T08:59:07;52.15;40.20;64.81;;
58303;Laerm;44109;52.398;7.024;2024-02-16T09:01:37;53.09;41.15;68.99;;
58303;Laerm;44109;52.398;7.024;2024-02-16T09:04:07;52.93;41.57;69.29;;
58303;Laerm;44109;52.398;7.024;2024-02-16T09:06:34;52.56;42.60;68.75;;
58303;Laerm;44109;52.398;7.024;2024-02-16T09:09:03;53.06;43.30;68.50;;
58303;Laerm;44109;52.398;7.024;2024-02-16T09:11:30;55.30;41.43;70.43;;
58303;Laerm;44109;52.398;7.024;2024-02-16T09:13:58;52.74;40.68;71.14;;
58303;Laerm;44109;52.398;7.024;2024-02-16T09:16:26;51.88;39.45;71.23;;
58303;Laerm;44109;52.398;7.024;2024-02-16T09:18:53;53.10;40.88;73.34;;
58303;Laerm;44109;52.398;7.024;2024-02-16T09:21:22;53.18;41.28;72.40;;
58303;Laerm;44109;52.398;7.024;2024-02-16T09:23:53;51.28;42.47;66.69;;
58303;Laerm;44109;52.398;7.024;2024-02-16T09:26:24;51.27;42.38;58.97;;
58303;Laerm;44109;52.398;7.024;2024-02-16T09:28:56;50.53;40.68;60.72;;
58303;Laerm;44109;52.398;7.024;2024-02-16T09:31:24;50.72;42.64;58.74;;
58303;Laerm;44109;52.398;7.024;2024-02-16T09:33:52;50.74;43.25;60.40;;
58303;Laerm;44109;52.398;7.024;2024-02-16T09:36:20;51.08;39.69;59.96;;
58303;Laerm;44109;52.398;7.024;2024-02-16T09:38:49;50.62;39.02;60.29;;
58303;Laerm;44109;52.398;7.024;2024-02-16T09:41:17;51.71;42.15;64.10;;
58303;Laerm;44109;52.398;7.024;2024-02-16T09:43:44;52.62;43.29;70.23;;
58303;Laerm;44109;52.398;7.024;2024-02-16T09:46:12;52.10;42.19;66.35;;
58303;Laerm;44109;52.398;7.024;2024-02-16T09:48:45;51.81;41.53;64.47;;
58303;Laerm;44109;52.398;7.024;2024-02-16T09:51:15;50.93;42.75;68.56;;
58303;Laerm;44109;52.398;7.024;2024-02-16T09:53:44;51.77;43.19;63.42;;
58303;Laerm;44109;52.398;7.024;2024-02-16T09:56:19;52.01;41.79;72.14;;
58303;Laerm;44109;52.398;7.024;2024-02-16T09:58:48;51.76;41.51;71.36;;
58303;Laerm;44109;52.398;7.024;2024-02-16T10:01:19;50.79;41.01;64.83;;
58303;Laerm;44109;52.398;7.024;2024-02-16T10:03:48;51.25;42.20;65.82;;
58303;Laerm;44109;52.398;7.024;2024-02-16T10:06:17;51.87;42.92;66.59;;
58303;Laerm;44109;52.398;7.024;2024-02-16T10:08:47;51.74;42.90;68.92;;
58303;Laerm;44109;52.398;7.024;2024-02-16T10:11:19;52.47;41.16;70.27;;
58303;Laerm;44109;52.398;7.024;2024-02-16T10:13:57;52.35;40.75;69.56;;
58303;Laerm;44109;52.398;7.024;2024-02-16T10:16:25;53.42;40.54;71.89;;
58303;Laerm;44109;52.398;7.024;2024-02-16T10:18:55;53.45;39.96;72.32;;
58303;Laerm;44109;52.398;7.024;2024-02-16T10:21:27;51.47;41.79;68.23;;
58303;Laerm;44109;52.398;7.024;2024-02-16T10:23:59;51.71;43.01;67.40;;
58303;Laerm;44109;52.398;7.024;2024-02-16T10:26:28;53.06;42.12;73.98;;
58303;Laerm;44109;52.398;7.024;2024-02-16T10:28:57;52.17;41.69;68.04;;
58303;Laerm;44109;52.398;7.024;2024-02-16T10:31:26;53.96;41.66;71.58;;
58303;Laerm;44109;52.398;7.024;2024-02-16T10:33:59;52.84;40.70;69.75;;
58303;Laerm;44109;52.398;7.024;2024-02-16T10:36:31;54.58;44.92;72.29;;
58303;Laerm;44109;52.398;7.024;2024-02-16T10:39:00;52.17;43.41;64.53;;
58303;Laerm;44109;52.398;7.024;2024-02-16T10:41:40;51.52;42.29;67.50;;
58303;Laerm;44109;52.398;7.024;2024-02-16T10:44:09;57.07;44.38;74.79;;
58303;Laerm;44109;52.398;7.024;2024-02-16T10:46:37;52.28;44.03;72.63;;
58303;Laerm;44109;52.398;7.024;2024-02-16T10:49:05;53.55;43.55;70.92;;
58303;Laerm;44109;52.398;7.024;2024-02-16T10:51:38;53.56;42.88;69.86;;
58303;Laerm;44109;52.398;7.024;2024-02-16T10:54:08;54.00;41.30;72.97;;
58303;Laerm;44109;52.398;7.024;2024-02-16T10:56:40;54.67;42.89;73.57;;
58303;Laerm;44109;52.398;7.024;2024-02-16T10:59:10;51.77;43.15;65.94;;
58303;Laerm;44109;52.398;7.024;2024-02-16T11:01:38;51.04;40.87;67.30;;
58303;Laerm;44109;52.398;7.024;2024-02-16T11:04:08;51.70;43.11;68.86;;
58303;Laerm;44109;52.398;7.024;2024-02-16T11:06:46;51.34;43.44;63.12;;
58303;Laerm;44109;52.398;7.024;2024-02-16T11:09:26;52.75;42.54;70.54;;
58303;Laerm;44109;52.398;7.024;2024-02-16T11:12:01;52.87;43.85;70.40;;
58303;Laerm;44109;52.398;7.024;2024-02-16T11:14:36;52.78;42.73;67.81;;
58303;Laerm;44109;52.398;7.024;2024-02-16T11:17:07;53.12;42.79;72.79;;
58303;Laerm;44109;52.398;7.024;2024-02-16T11:19:37;54.41;43.82;75.32;;
58303;Laerm;44109;52.398;7.024;2024-02-16T11:22:06;53.59;41.78;71.22;;
58303;Laerm;44109;52.398;7.024;2024-02-16T11:24:36;51.46;42.14;72.71;;
58303;Laerm;44109;52.398;7.024;2024-02-16T11:27:07;50.88;41.32;59.57;;
58303;Laerm;44109;52.398;7.024;2024-02-16T11:29:36;51.05;41.01;68.22;;
58303;Laerm;44109;52.398;7.024;2024-02-16T11:32:06;52.22;43.28;72.99;;
58303;Laerm;44109;52.398;7.024;2024-02-16T11:34:35;50.77;40.86;65.18;;
58303;Laerm;44109;52.398;7.024;2024-02-16T11:37:04;50.03;40.29;58.66;;
58303;Laerm;44109;52.398;7.024;2024-02-16T11:39:33;50.96;40.95;67.56;;
58303;Laerm;44109;52.398;7.024;2024-02-16T11:42:07;51.85;39.48;72.11;;
58303;Laerm;44109;52.398;7.024;2024-02-16T11:44:38;52.00;40.17;72.12;;
58303;Laerm;44109;52.398;7.024;2024-02-16T11:47:09;51.52;43.72;66.31;;
58303;Laerm;44109;52.398;7.024;2024-02-16T11:49:40;54.66;43.80;76.89;;
58303;Laerm;44109;52.398;7.024;2024-02-16T11:52:08;51.36;43.03;69.16;;
58303;Laerm;44109;52.398;7.024;2024-02-16T11:54:35;51.74;44.08;63.42;;
58303;Laerm;44109;52.398;7.024;2024-02-16T11:57:05;51.75;42.55;72.59;;
58303;Laerm;44109;52.398;7.024;2024-02-16T11:59:34;56.73;46.08;75.61;;
58303;Laerm;44109;52.398;7.024;2024-02-16T12:02:02;53.28;45.33;76.02;;
58303;Laerm;44109;52.398;7.024;2024-02-16T12:04:31;52.35;45.60;71.10;;
58303;Laerm;44109;52.398;7.024;2024-02-16T12:07:03;55.14;49.38;72.39;;
58303;Laerm;44109;52.398;7.024;2024-02-16T12:09:30;56.23;48.55;74.84;;
58303;Laerm;44109;52.398;7.024;2024-02-16T12:12:00;59.14;50.39;75.67;;
58303;Laerm;44109;52.398;7.024;2024-02-16T12:14:30;56.88;50.18;87.88;;
58303;Laerm;44109;52.398;7.024;2024-02-16T12:16:58;54.50;48.45;74.97;;
58303;Laerm;44109;52.398;7.024;2024-02-16T12:19:26;54.17;43.53;82.61;;
58303;Laerm;44109;52.398;7.024;2024-02-16T12:21:55;51.53;43.63;68.42;;
58303;Laerm;44109;52.398;7.024;2024-02-16T12:24:24;54.61;44.40;83.90;;
58303;Laerm;44109;52.398;7.024;2024-02-16T12:26:52;53.17;43.76;73.45;;
58303;Laerm;44109;52.398;7.024;2024-02-16T12:29:20;66.53;43.76;100.61;;
58303;Laerm;44109;52.398;7.024;2024-02-16T12:31:50;67.35;43.80;100.84;;
58303;Laerm;44109;52.398;7.024;2024-02-16T12:34:18;62.80;43.66;98.41;;
58303;Laerm;44109;52.398;7.024;2024-02-16T12:36:45;59.23;43.33;94.12;;
58303;Laerm;44109;52.398;7.024;2024-02-16T12:39:13;52.15;44.05;64.90;;
58303;Laerm;44109;52.398;7.024;2024-02-16T12:41:42;55.88;42.00;79.49;;
58303;Laerm;44109;52.398;7.024;2024-02-16T12:44:10;50.09;39.73;68.56;;
58303;Laerm;44109;52.398;7.024;2024-02-16T12:46:37;57.75;42.96;84.73;;
58303;Laerm;44109;52.398;7.024;2024-02-16T12:49:07;61.46;44.81;87.33;;
58303;Laerm;44109;52.398;7.024;2024-02-16T12:51:35;53.74;41.38;85.48;;
58303;Laerm;44109;52.398;7.024;2024-02-16T12:54:02;51.15;41.75;66.03;;
58303;Laerm;44109;52.398;7.024;2024-02-16T12:56:31;51.29;42.87;64.08;;
58303;Laerm;44109;52.398;7.024;2024-02-16T12:58:59;51.16;40.62;63.21;;
58303;Laerm;44109;52.398;7.024;2024-02-16T13:01:28;51.29;40.79;69.42;;
58303;Laerm;44109;52.398;7.024;2024-02-16T13:03:55;52.19;41.15;79.47;;
58303;Laerm;44109;52.398;7.024;2024-02-16T13:06:24;61.91;43.20;97.49;;
58303;Laerm;44109;52.398;7.024;2024-02-16T13:08:52;55.06;40.80;81.20;;
58303;Laerm;44109;52.398;7.024;2024-02-16T13:11:19;53.76;42.91;81.96;;
58303;Laerm;44109;52.398;7.024;2024-02-16T13:13:47;56.36;44.38;81.00;;
58303;Laerm;44109;52.398;7.024;2024-02-16T13:16:15;54.43;41.27;76.21;;
58303;Laerm;44109;52.398;7.024;2024-02-16T13:18:42;57.27;41.53;84.36;;
58303;Laerm;44109;52.398;7.024;2024-02-16T13:21:10;59.17;42.37;90.63;;
58303;Laerm;44109;52.398;7.024;2024-02-16T13:23:39;68.14;46.70;94.83;;
58303;Laerm;44109;52.398;7.024;2024-02-16T13:26:07;64.70;43.89;91.72;;
58303;Laerm;44109;52.398;7.024;2024-02-16T13:28:36;60.87;44.12;87.83;;
58303;Laerm;44109;52.398;7.024;2024-02-16T13:31:04;53.18;41.64;72.56;;
58303;Laerm;44109;52.398;7.024;2024-02-16T13:33:31;52.84;41.20;79.77;;
58303;Laerm;44109;52.398;7.024;2024-02-16T13:35:59;51.61;41.19;69.19;;
58303;Laerm;44109;52.398;7.024;2024-02-16T13:38:26;51.02;40.14;69.85;;
58303;Laerm;44109;52.398;7.024;2024-02-16T13:40:55;50.73;40.36;66.77;;
58303;Laerm;44109;52.398;7.024;2024-02-16T13:43:23;51.57;40.15;68.40;;
58303;Laerm;44109;52.398;7.024;2024-02-16T13:45:53;51.24;41.89;64.33;;
58303;Laerm;44109;52.398;7.024;2024-02-16T13:48:21;51.10;41.47;66.09;;
58303;Laerm;44109;52.398;7.024;2024-02-16T13:50:49;51.10;40.68;66.64;;
58303;Laerm;44109;52.398;7.024;2024-02-16T13:53:17;50.29;40.74;63.46;;